Terminal Aerodrome Forecast
Issued by NWS

Home | Current Version | Previous Version | Graphics & Text | Print | Product List | Glossary On
Versions: 1 2 3 4 5 6 7 8 9 10 11 12 13 14 15 16 17 18 19 20
000
FTUS41 KCLE 172338
TAFFDY
TAF
KFDY 172338Z 1800/1824 17005KT P6SM BKN250
     FM181000 00000KT 6SM BR BKN035
     FM181300 22004KT P6SM SCT025 BKN100
     FM181900 VRB04KT P6SM VCSH BKN035=

USA.gov is the U.S. government's official web portal to all federal, state and local government web resources and services.